sensor_id;sensor_type;location;lat;lon;timestamp;temperature;humidity
15178;DHT22;7689;53.612;-2.416;2022-12-11T00:00:16;2.80;99.90
15178;DHT22;7689;53.612;-2.416;2022-12-11T00:02:42;2.70;99.90
15178;DHT22;7689;53.612;-2.416;2022-12-11T00:05:08;2.50;99.90
15178;DHT22;7689;53.612;-2.416;2022-12-11T00:07:33;2.40;99.90
15178;DHT22;7689;53.612;-2.416;2022-12-11T00:09:59;2.40;99.90
15178;DHT22;7689;53.612;-2.416;2022-12-11T00:12:25;2.50;99.90
15178;DHT22;7689;53.612;-2.416;2022-12-11T00:14:50;2.50;99.90
15178;DHT22;7689;53.612;-2.416;2022-12-11T00:17:16;2.40;99.90
15178;DHT22;7689;53.612;-2.416;2022-12-11T00:19:42;2.40;99.90
15178;DHT22;7689;53.612;-2.416;2022-12-11T00:22:08;2.40;99.90
15178;DHT22;7689;53.612;-2.416;2022-12-11T00:24:33;2.30;99.90
15178;DHT22;7689;53.612;-2.416;2022-12-11T00:27:00;2.30;99.90
15178;DHT22;7689;53.612;-2.416;2022-12-11T00:29:26;2.40;99.90
15178;DHT22;7689;53.612;-2.416;2022-12-11T00:31:51;2.40;99.90
15178;DHT22;7689;53.612;-2.416;2022-12-11T00:34:17;2.30;99.90
15178;DHT22;7689;53.612;-2.416;2022-12-11T00:36:43;2.40;99.90
15178;DHT22;7689;53.612;-2.416;2022-12-11T00:39:08;2.50;99.90
15178;DHT22;7689;53.612;-2.416;2022-12-11T00:41:34;2.40;99.90
15178;DHT22;7689;53.612;-2.416;2022-12-11T00:44:00;2.50;99.90
15178;DHT22;7689;53.612;-2.416;2022-12-11T00:46:25;2.50;99.90
15178;DHT22;7689;53.612;-2.416;2022-12-11T00:48:51;2.50;99.90
15178;DHT22;7689;53.612;-2.416;2022-12-11T00:51:18;2.50;99.90
15178;DHT22;7689;53.612;-2.416;2022-12-11T00:53:43;2.20;99.90
15178;DHT22;7689;53.612;-2.416;2022-12-11T00:56:14;2.10;99.90
15178;DHT22;7689;53.612;-2.416;2022-12-11T00:58:40;2.30;99.90
15178;DHT22;7689;53.612;-2.416;2022-12-11T01:01:09;2.20;99.90
15178;DHT22;7689;53.612;-2.416;2022-12-11T01:03:35;2.10;99.90
15178;DHT22;7689;53.612;-2.416;2022-12-11T01:06:02;2.20;99.90
15178;DHT22;7689;53.612;-2.416;2022-12-11T01:08:28;2.20;99.90
15178;DHT22;7689;53.612;-2.416;2022-12-11T01:11:07;2.10;99.90
15178;DHT22;7689;53.612;-2.416;2022-12-11T01:13:33;2.00;99.90
15178;DHT22;7689;53.612;-2.416;2022-12-11T01:16:04;2.00;99.90
15178;DHT22;7689;53.612;-2.416;2022-12-11T01:18:30;2.10;99.90
15178;DHT22;7689;53.612;-2.416;2022-12-11T01:20:55;2.30;99.90
15178;DHT22;7689;53.612;-2.416;2022-12-11T01:23:21;2.30;99.90
15178;DHT22;7689;53.612;-2.416;2022-12-11T01:25:47;2.40;99.90
15178;DHT22;7689;53.612;-2.416;2022-12-11T01:28:12;2.40;99.90
15178;DHT22;7689;53.612;-2.416;2022-12-11T01:30:40;2.70;99.90
15178;DHT22;7689;53.612;-2.416;2022-12-11T01:33:06;2.70;99.90
15178;DHT22;7689;53.612;-2.416;2022-12-11T01:35:32;2.70;99.90
15178;DHT22;7689;53.612;-2.416;2022-12-11T01:37:58;2.70;99.90
15178;DHT22;7689;53.612;-2.416;2022-12-11T01:40:24;2.90;99.90
15178;DHT22;7689;53.612;-2.416;2022-12-11T01:42:49;3.10;99.90
15178;DHT22;7689;53.612;-2.416;2022-12-11T01:47:52;3.30;99.90
15178;DHT22;7689;53.612;-2.416;2022-12-11T01:50:19;3.20;99.90
15178;DHT22;7689;53.612;-2.416;2022-12-11T01:52:46;2.90;99.90
15178;DHT22;7689;53.612;-2.416;2022-12-11T01:55:14;2.70;99.90
15178;DHT22;7689;53.612;-2.416;2022-12-11T01:57:42;2.70;99.90
15178;DHT22;7689;53.612;-2.416;2022-12-11T02:00:09;2.70;99.90
15178;DHT22;7689;53.612;-2.416;2022-12-11T02:02:35;2.50;99.90
15178;DHT22;7689;53.612;-2.416;2022-12-11T02:05:01;2.30;99.90
15178;DHT22;7689;53.612;-2.416;2022-12-11T02:07:30;2.20;99.90
15178;DHT22;7689;53.612;-2.416;2022-12-11T02:10:00;2.00;99.90
15178;DHT22;7689;53.612;-2.416;2022-12-11T02:18:17;1.90;99.90
15178;DHT22;7689;53.612;-2.416;2022-12-11T02:20:54;1.90;99.90
15178;DHT22;7689;53.612;-2.416;2022-12-11T02:23:44;1.90;99.90
15178;DHT22;7689;53.612;-2.416;2022-12-11T02:26:53;2.00;99.90
15178;DHT22;7689;53.612;-2.416;2022-12-11T02:29:26;2.20;99.90
15178;DHT22;7689;53.612;-2.416;2022-12-11T02:32:12;2.10;99.90
15178;DHT22;7689;53.612;-2.416;2022-12-11T02:37:38;2.20;99.90
15178;DHT22;7689;53.612;-2.416;2022-12-11T02:40:08;2.20;99.90
15178;DHT22;7689;53.612;-2.416;2022-12-11T02:42:37;2.20;99.90
15178;DHT22;7689;53.612;-2.416;2022-12-11T02:45:04;2.30;99.90
15178;DHT22;7689;53.612;-2.416;2022-12-11T02:47:32;2.30;99.90
15178;DHT22;7689;53.612;-2.416;2022-12-11T02:50:01;2.30;99.90
15178;DHT22;7689;53.612;-2.416;2022-12-11T02:52:29;2.30;99.90
15178;DHT22;7689;53.612;-2.416;2022-12-11T02:54:56;2.40;99.90
15178;DHT22;7689;53.612;-2.416;2022-12-11T02:57:28;2.50;99.90
15178;DHT22;7689;53.612;-2.416;2022-12-11T02:59:56;2.50;99.90
15178;DHT22;7689;53.612;-2.416;2022-12-11T03:02:21;2.40;99.90
15178;DHT22;7689;53.612;-2.416;2022-12-11T03:04:47;2.50;99.90
15178;DHT22;7689;53.612;-2.416;2022-12-11T03:07:17;2.40;99.90
15178;DHT22;7689;53.612;-2.416;2022-12-11T03:09:45;2.30;99.90
15178;DHT22;7689;53.612;-2.416;2022-12-11T03:12:22;2.10;99.90
15178;DHT22;7689;53.612;-2.416;2022-12-11T03:14:50;2.20;99.90
15178;DHT22;7689;53.612;-2.416;2022-12-11T03:26:05;2.00;99.90
15178;DHT22;7689;53.612;-2.416;2022-12-11T03:31:24;1.90;99.90
15178;DHT22;7689;53.612;-2.416;2022-12-11T03:33:53;1.80;99.90
15178;DHT22;7689;53.612;-2.416;2022-12-11T03:36:24;1.80;99.90
15178;DHT22;7689;53.612;-2.416;2022-12-11T03:38:58;1.70;99.90
15178;DHT22;7689;53.612;-2.416;2022-12-11T03:41:26;1.80;99.90
15178;DHT22;7689;53.612;-2.416;2022-12-11T03:43:56;1.70;99.90
15178;DHT22;7689;53.612;-2.416;2022-12-11T03:46:26;1.70;99.90
15178;DHT22;7689;53.612;-2.416;2022-12-11T03:48:57;1.60;99.90
15178;DHT22;7689;53.612;-2.416;2022-12-11T03:51:25;1.60;99.90
15178;DHT22;7689;53.612;-2.416;2022-12-11T03:53:51;1.80;99.90
15178;DHT22;7689;53.612;-2.416;2022-12-11T03:56:20;1.70;99.90
15178;DHT22;7689;53.612;-2.416;2022-12-11T03:58:46;1.60;99.90
15178;DHT22;7689;53.612;-2.416;2022-12-11T04:01:11;1.70;99.90
15178;DHT22;7689;53.612;-2.416;2022-12-11T04:03:38;1.80;99.90
15178;DHT22;7689;53.612;-2.416;2022-12-11T04:06:04;1.90;99.90
15178;DHT22;7689;53.612;-2.416;2022-12-11T04:08:29;2.10;99.90
15178;DHT22;7689;53.612;-2.416;2022-12-11T04:10:55;2.30;99.90
15178;DHT22;7689;53.612;-2.416;2022-12-11T04:13:40;4.00;99.90
15178;DHT22;7689;53.612;-2.416;2022-12-11T04:16:07;2.50;99.90
15178;DHT22;7689;53.612;-2.416;2022-12-11T04:18:33;2.50;99.90
15178;DHT22;7689;53.612;-2.416;2022-12-11T04:21:17;2.50;99.90
15178;DHT22;7689;53.612;-2.416;2022-12-11T04:24:02;2.20;99.90
15178;DHT22;7689;53.612;-2.416;2022-12-11T04:26:40;2.10;99.90
15178;DHT22;7689;53.612;-2.416;2022-12-11T04:29:06;2.20;99.90
15178;DHT22;7689;53.612;-2.416;2022-12-11T04:31:31;2.30;99.90
15178;DHT22;7689;53.612;-2.416;2022-12-11T04:33:57;2.40;99.90
15178;DHT22;7689;53.612;-2.416;2022-12-11T04:36:23;2.40;99.90
15178;DHT22;7689;53.612;-2.416;2022-12-11T04:38:48;1.50;99.90
15178;DHT22;7689;53.612;-2.416;2022-12-11T04:41:14;2.00;99.90
15178;DHT22;7689;53.612;-2.416;2022-12-11T04:43:40;1.90;99.90
15178;DHT22;7689;53.612;-2.416;2022-12-11T04:46:18;1.90;99.90
15178;DHT22;7689;53.612;-2.416;2022-12-11T04:48:45;1.80;99.90
15178;DHT22;7689;53.612;-2.416;2022-12-11T04:51:11;1.90;99.90
15178;DHT22;7689;53.612;-2.416;2022-12-11T04:53:37;2.00;99.90
15178;DHT22;7689;53.612;-2.416;2022-12-11T04:56:07;2.30;99.90
15178;DHT22;7689;53.612;-2.416;2022-12-11T04:58:34;2.40;99.90
15178;DHT22;7689;53.612;-2.416;2022-12-11T05:01:09;2.50;99.90
15178;DHT22;7689;53.612;-2.416;2022-12-11T05:03:36;2.40;99.90
15178;DHT22;7689;53.612;-2.416;2022-12-11T05:06:02;2.50;99.90
15178;DHT22;7689;53.612;-2.416;2022-12-11T05:08:27;2.30;99.90
15178;DHT22;7689;53.612;-2.416;2022-12-11T05:10:57;2.20;99.90
15178;DHT22;7689;53.612;-2.416;2022-12-11T05:13:23;2.30;99.90
15178;DHT22;7689;53.612;-2.416;2022-12-11T05:15:49;2.40;99.90
15178;DHT22;7689;53.612;-2.416;2022-12-11T05:18:15;2.50;99.90
15178;DHT22;7689;53.612;-2.416;2022-12-11T05:20:40;2.40;99.90
15178;DHT22;7689;53.612;-2.416;2022-12-11T05:23:06;2.40;99.90
15178;DHT22;7689;53.612;-2.416;2022-12-11T05:25:32;2.50;99.90
15178;DHT22;7689;53.612;-2.416;2022-12-11T05:27:57;2.60;99.90
15178;DHT22;7689;53.612;-2.416;2022-12-11T05:30:23;2.40;99.90
15178;DHT22;7689;53.612;-2.416;2022-12-11T05:32:48;2.40;99.90
15178;DHT22;7689;53.612;-2.416;2022-12-11T05:35:14;2.40;99.90
15178;DHT22;7689;53.612;-2.416;2022-12-11T05:37:40;2.50;99.90
15178;DHT22;7689;53.612;-2.416;2022-12-11T05:40:06;2.40;99.90
15178;DHT22;7689;53.612;-2.416;2022-12-11T05:42:33;2.30;99.90
15178;DHT22;7689;53.612;-2.416;2022-12-11T05:44:58;2.30;99.90
15178;DHT22;7689;53.612;-2.416;2022-12-11T05:47:24;2.40;99.90
15178;DHT22;7689;53.612;-2.416;2022-12-11T05:49:50;2.40;99.90
15178;DHT22;7689;53.612;-2.416;2022-12-11T05:52:16;2.50;99.90
15178;DHT22;7689;53.612;-2.416;2022-12-11T05:54:42;2.50;99.90
15178;DHT22;7689;53.612;-2.416;2022-12-11T05:57:07;2.40;99.90
15178;DHT22;7689;53.612;-2.416;2022-12-11T05:59:33;2.30;99.90
15178;DHT22;7689;53.612;-2.416;2022-12-11T06:01:59;2.30;99.90
15178;DHT22;7689;53.612;-2.416;2022-12-11T06:04:25;2.20;99.90
15178;DHT22;7689;53.612;-2.416;2022-12-11T06:06:53;2.30;99.90
15178;DHT22;7689;53.612;-2.416;2022-12-11T06:09:18;2.50;99.90
15178;DHT22;7689;53.612;-2.416;2022-12-11T06:11:44;2.90;99.90
15178;DHT22;7689;53.612;-2.416;2022-12-11T06:14:10;2.70;99.90
15178;DHT22;7689;53.612;-2.416;2022-12-11T06:16:36;2.70;99.90
15178;DHT22;7689;53.612;-2.416;2022-12-11T06:19:02;2.70;99.90
15178;DHT22;7689;53.612;-2.416;2022-12-11T06:21:30;2.70;99.90
15178;DHT22;7689;53.612;-2.416;2022-12-11T06:23:59;2.50;99.90
15178;DHT22;7689;53.612;-2.416;2022-12-11T06:26:26;2.30;99.90
15178;DHT22;7689;53.612;-2.416;2022-12-11T06:28:52;2.30;99.90
15178;DHT22;7689;53.612;-2.416;2022-12-11T06:31:18;2.20;99.90
15178;DHT22;7689;53.612;-2.416;2022-12-11T06:33:44;2.10;99.90
15178;DHT22;7689;53.612;-2.416;2022-12-11T06:36:16;2.20;99.90
15178;DHT22;7689;53.612;-2.416;2022-12-11T06:38:42;2.30;99.90
15178;DHT22;7689;53.612;-2.416;2022-12-11T06:41:09;2.50;99.90
15178;DHT22;7689;53.612;-2.416;2022-12-11T06:43:36;2.40;99.90
15178;DHT22;7689;53.612;-2.416;2022-12-11T06:46:04;2.40;99.90
15178;DHT22;7689;53.612;-2.416;2022-12-11T06:48:29;2.10;99.90
15178;DHT22;7689;53.612;-2.416;2022-12-11T06:50:55;2.10;99.90
15178;DHT22;7689;53.612;-2.416;2022-12-11T06:53:20;2.10;99.90
15178;DHT22;7689;53.612;-2.416;2022-12-11T06:55:46;1.80;99.90
15178;DHT22;7689;53.612;-2.416;2022-12-11T06:58:12;1.50;99.90
15178;DHT22;7689;53.612;-2.416;2022-12-11T07:00:37;1.40;99.90
15178;DHT22;7689;53.612;-2.416;2022-12-11T07:03:03;1.40;99.90
15178;DHT22;7689;53.612;-2.416;2022-12-11T07:05:30;1.20;99.90
15178;DHT22;7689;53.612;-2.416;2022-12-11T07:07:56;1.10;99.90
15178;DHT22;7689;53.612;-2.416;2022-12-11T07:10:23;1.10;99.90
15178;DHT22;7689;53.612;-2.416;2022-12-11T07:12:51;1.00;99.90
15178;DHT22;7689;53.612;-2.416;2022-12-11T07:15:17;1.10;99.90
15178;DHT22;7689;53.612;-2.416;2022-12-11T07:17:42;1.00;99.90
15178;DHT22;7689;53.612;-2.416;2022-12-11T07:20:08;1.00;99.90
15178;DHT22;7689;53.612;-2.416;2022-12-11T07:22:34;1.00;99.90
15178;DHT22;7689;53.612;-2.416;2022-12-11T07:24:59;1.10;99.90
15178;DHT22;7689;53.612;-2.416;2022-12-11T07:27:25;1.00;99.90
15178;DHT22;7689;53.612;-2.416;2022-12-11T07:29:51;0.90;99.90
15178;DHT22;7689;53.612;-2.416;2022-12-11T07:32:17;0.90;99.90
15178;DHT22;7689;53.612;-2.416;2022-12-11T07:34:42;0.90;99.90
15178;DHT22;7689;53.612;-2.416;2022-12-11T07:37:08;1.00;99.90
15178;DHT22;7689;53.612;-2.416;2022-12-11T07:39:33;0.90;99.90
15178;DHT22;7689;53.612;-2.416;2022-12-11T07:41:59;0.90;99.90
15178;DHT22;7689;53.612;-2.416;2022-12-11T07:44:25;0.80;99.90
15178;DHT22;7689;53.612;-2.416;2022-12-11T07:46:50;0.70;99.90
15178;DHT22;7689;53.612;-2.416;2022-12-11T07:49:16;0.80;99.90
15178;DHT22;7689;53.612;-2.416;2022-12-11T07:51:42;0.90;99.90
15178;DHT22;7689;53.612;-2.416;2022-12-11T07:54:10;0.90;99.90
15178;DHT22;7689;53.612;-2.416;2022-12-11T07:56:39;1.10;99.90
15178;DHT22;7689;53.612;-2.416;2022-12-11T07:59:05;1.10;99.90
15178;DHT22;7689;53.612;-2.416;2022-12-11T08:01:33;1.20;99.90
15178;DHT22;7689;53.612;-2.416;2022-12-11T08:04:07;1.20;99.90
15178;DHT22;7689;53.612;-2.416;2022-12-11T08:06:35;1.20;99.90
15178;DHT22;7689;53.612;-2.416;2022-12-11T08:09:04;1.20;99.90
15178;DHT22;7689;53.612;-2.416;2022-12-11T08:11:30;1.10;99.90
15178;DHT22;7689;53.612;-2.416;2022-12-11T08:13:57;1.20;99.90
15178;DHT22;7689;53.612;-2.416;2022-12-11T08:16:24;1.20;99.90
15178;DHT22;7689;53.612;-2.416;2022-12-11T08:18:50;1.20;99.90
15178;DHT22;7689;53.612;-2.416;2022-12-11T08:21:18;1.30;99.90
15178;DHT22;7689;53.612;-2.416;2022-12-11T08:23:44;1.30;99.90
15178;DHT22;7689;53.612;-2.416;2022-12-11T08:26:13;1.40;99.90
15178;DHT22;7689;53.612;-2.416;2022-12-11T08:28:39;1.40;99.90
15178;DHT22;7689;53.612;-2.416;2022-12-11T08:31:08;1.50;99.90
15178;DHT22;7689;53.612;-2.416;2022-12-11T08:33:35;1.60;99.90
15178;DHT22;7689;53.612;-2.416;2022-12-11T08:36:08;1.60;99.90
15178;DHT22;7689;53.612;-2.416;2022-12-11T08:38:35;1.40;99.90
15178;DHT22;7689;53.612;-2.416;2022-12-11T08:43:34;1.30;99.90
15178;DHT22;7689;53.612;-2.416;2022-12-11T08:45:59;1.40;99.90
15178;DHT22;7689;53.612;-2.416;2022-12-11T08:48:25;1.40;99.90
15178;DHT22;7689;53.612;-2.416;2022-12-11T08:50:51;1.50;99.90
15178;DHT22;7689;53.612;-2.416;2022-12-11T08:53:16;1.50;99.90
15178;DHT22;7689;53.612;-2.416;2022-12-11T08:55:42;1.50;99.90
15178;DHT22;7689;53.612;-2.416;2022-12-11T08:58:07;1.50;99.90
15178;DHT22;7689;53.612;-2.416;2022-12-11T09:00:33;1.70;99.90
15178;DHT22;7689;53.612;-2.416;2022-12-11T09:02:59;1.60;99.90
15178;DHT22;7689;53.612;-2.416;2022-12-11T09:05:24;1.70;99.90
15178;DHT22;7689;53.612;-2.416;2022-12-11T09:07:50;1.70;99.90
15178;DHT22;7689;53.612;-2.416;2022-12-11T09:10:16;1.70;99.90
15178;DHT22;7689;53.612;-2.416;2022-12-11T09:12:42;1.50;99.90
15178;DHT22;7689;53.612;-2.416;2022-12-11T09:15:08;1.50;99.90
15178;DHT22;7689;53.612;-2.416;2022-12-11T09:17:34;1.50;99.90
15178;DHT22;7689;53.612;-2.416;2022-12-11T09:20:00;1.40;99.90
15178;DHT22;7689;53.612;-2.416;2022-12-11T09:22:26;1.30;99.90
15178;DHT22;7689;53.612;-2.416;2022-12-11T09:24:51;1.30;99.90
15178;DHT22;7689;53.612;-2.416;2022-12-11T09:27:17;1.30;99.90
15178;DHT22;7689;53.612;-2.416;2022-12-11T09:29:45;1.30;99.90
15178;DHT22;7689;53.612;-2.416;2022-12-11T09:32:11;1.40;99.90
15178;DHT22;7689;53.612;-2.416;2022-12-11T09:34:36;1.30;99.90
15178;DHT22;7689;53.612;-2.416;2022-12-11T09:37:02;1.30;99.90
15178;DHT22;7689;53.612;-2.416;2022-12-11T09:39:28;1.40;99.90
15178;DHT22;7689;53.612;-2.416;2022-12-11T09:45:04;1.30;99.90
15178;DHT22;7689;53.612;-2.416;2022-12-11T09:47:41;1.40;99.90
15178;DHT22;7689;53.612;-2.416;2022-12-11T09:50:23;1.40;99.90
15178;DHT22;7689;53.612;-2.416;2022-12-11T09:55:40;1.30;99.90
15178;DHT22;7689;53.612;-2.416;2022-12-11T10:01:16;1.60;99.90
15178;DHT22;7689;53.612;-2.416;2022-12-11T10:06:30;1.50;99.90
15178;DHT22;7689;53.612;-2.416;2022-12-11T10:17:31;1.60;99.90
15178;DHT22;7689;53.612;-2.416;2022-12-11T10:20:22;1.70;99.90
15178;DHT22;7689;53.612;-2.416;2022-12-11T10:22:50;1.80;99.90
15178;DHT22;7689;53.612;-2.416;2022-12-11T10:25:50;1.90;99.90
15178;DHT22;7689;53.612;-2.416;2022-12-11T10:28:18;2.00;99.90
15178;DHT22;7689;53.612;-2.416;2022-12-11T10:35:57;1.90;99.90
15178;DHT22;7689;53.612;-2.416;2022-12-11T10:38:25;1.90;99.90
15178;DHT22;7689;53.612;-2.416;2022-12-11T10:41:03;1.90;99.90
15178;DHT22;7689;53.612;-2.416;2022-12-11T10:43:39;1.90;99.90
15178;DHT22;7689;53.612;-2.416;2022-12-11T10:46:17;2.10;99.90
15178;DHT22;7689;53.612;-2.416;2022-12-11T10:48:51;2.00;99.90
15178;DHT22;7689;53.612;-2.416;2022-12-11T10:51:21;2.00;99.90
15178;DHT22;7689;53.612;-2.416;2022-12-11T10:53:56;2.00;99.90
15178;DHT22;7689;53.612;-2.416;2022-12-11T10:56:28;2.10;99.90
15178;DHT22;7689;53.612;-2.416;2022-12-11T10:58:56;2.10;99.90
15178;DHT22;7689;53.612;-2.416;2022-12-11T11:01:24;2.20;99.90
15178;DHT22;7689;53.612;-2.416;2022-12-11T11:06:21;2.40;99.90
15178;DHT22;7689;53.612;-2.416;2022-12-11T11:08:52;2.40;99.90
15178;DHT22;7689;53.612;-2.416;2022-12-11T11:11:20;2.50;99.90
15178;DHT22;7689;53.612;-2.416;2022-12-11T11:13:46;2.60;99.90
15178;DHT22;7689;53.612;-2.416;2022-12-11T11:16:14;2.70;99.90
15178;DHT22;7689;53.612;-2.416;2022-12-11T11:18:50;2.70;99.90
15178;DHT22;7689;53.612;-2.416;2022-12-11T11:21:22;2.70;99.90
15178;DHT22;7689;53.612;-2.416;2022-12-11T11:23:50;2.80;99.90
15178;DHT22;7689;53.612;-2.416;2022-12-11T11:26:16;2.80;99.90
15178;DHT22;7689;53.612;-2.416;2022-12-11T11:28:56;2.90;99.90
15178;DHT22;7689;53.612;-2.416;2022-12-11T11:31:31;2.90;99.90
15178;DHT22;7689;53.612;-2.416;2022-12-11T11:34:04;2.90;99.90
15178;DHT22;7689;53.612;-2.416;2022-12-11T11:36:33;3.00;99.90
15178;DHT22;7689;53.612;-2.416;2022-12-11T11:39:25;3.00;99.90
15178;DHT22;7689;53.612;-2.416;2022-12-11T11:41:57;3.00;99.90
15178;DHT22;7689;53.612;-2.416;2022-12-11T11:44:38;3.00;99.90
15178;DHT22;7689;53.612;-2.416;2022-12-11T11:47:23;3.10;99.90
15178;DHT22;7689;53.612;-2.416;2022-12-11T11:52:41;3.20;99.90
15178;DHT22;7689;53.612;-2.416;2022-12-11T11:55:34;3.30;99.90
15178;DHT22;7689;53.612;-2.416;2022-12-11T11:58:13;3.20;99.90
15178;DHT22;7689;53.612;-2.416;2022-12-11T12:00:40;3.10;99.90
15178;DHT22;7689;53.612;-2.416;2022-12-11T12:03:12;3.10;99.90
15178;DHT22;7689;53.612;-2.416;2022-12-11T12:17:10;3.00;99.90
15178;DHT22;7689;53.612;-2.416;2022-12-11T12:33:43;2.70;99.90
15178;DHT22;7689;53.612;-2.416;2022-12-11T12:42:41;2.60;99.90
15178;DHT22;7689;53.612;-2.416;2022-12-11T12:47:44;2.70;99.90
15178;DHT22;7689;53.612;-2.416;2022-12-11T12:50:23;2.60;99.90
15178;DHT22;7689;53.612;-2.416;2022-12-11T12:52:50;2.50;99.90
15178;DHT22;7689;53.612;-2.416;2022-12-11T12:55:24;2.40;99.90
15178;DHT22;7689;53.612;-2.416;2022-12-11T12:57:59;2.30;99.90
15178;DHT22;7689;53.612;-2.416;2022-12-11T13:00:40;2.30;99.90
15178;DHT22;7689;53.612;-2.416;2022-12-11T13:03:24;2.20;99.90
15178;DHT22;7689;53.612;-2.416;2022-12-11T13:06:04;2.10;99.90
15178;DHT22;7689;53.612;-2.416;2022-12-11T13:08:45;2.10;99.90
15178;DHT22;7689;53.612;-2.416;2022-12-11T13:11:12;2.00;99.90
15178;DHT22;7689;53.612;-2.416;2022-12-11T13:13:43;2.00;99.90
15178;DHT22;7689;53.612;-2.416;2022-12-11T13:18:43;1.90;99.90
15178;DHT22;7689;53.612;-2.416;2022-12-11T13:23:54;1.90;99.90
15178;DHT22;7689;53.612;-2.416;2022-12-11T13:26:29;1.90;99.90
15178;DHT22;7689;53.612;-2.416;2022-12-11T13:28:55;2.00;99.90
15178;DHT22;7689;53.612;-2.416;2022-12-11T13:31:29;1.90;99.90
15178;DHT22;7689;53.612;-2.416;2022-12-11T13:34:01;1.90;99.90
15178;DHT22;7689;53.612;-2.416;2022-12-11T13:36:33;2.10;99.90
15178;DHT22;7689;53.612;-2.416;2022-12-11T13:39:07;2.20;99.90
15178;DHT22;7689;53.612;-2.416;2022-12-11T13:41:35;2.20;99.90
15178;DHT22;7689;53.612;-2.416;2022-12-11T13:44:03;2.10;99.90
15178;DHT22;7689;53.612;-2.416;2022-12-11T13:46:33;2.20;99.90
15178;DHT22;7689;53.612;-2.416;2022-12-11T13:49:06;2.30;99.90
15178;DHT22;7689;53.612;-2.416;2022-12-11T13:51:32;2.30;99.90
15178;DHT22;7689;53.612;-2.416;2022-12-11T13:54:15;2.50;99.90
15178;DHT22;7689;53.612;-2.416;2022-12-11T13:56:53;2.60;99.90
15178;DHT22;7689;53.612;-2.416;2022-12-11T14:02:00;2.70;99.90
15178;DHT22;7689;53.612;-2.416;2022-12-11T14:04:27;2.70;99.90
15178;DHT22;7689;53.612;-2.416;2022-12-11T14:06:55;2.90;99.90
15178;DHT22;7689;53.612;-2.416;2022-12-11T14:09:23;2.80;99.90
15178;DHT22;7689;53.612;-2.416;2022-12-11T14:11:51;2.80;99.90
15178;DHT22;7689;53.612;-2.416;2022-12-11T14:14:42;2.70;99.90
15178;DHT22;7689;53.612;-2.416;2022-12-11T14:17:28;2.80;99.90
15178;DHT22;7689;53.612;-2.416;2022-12-11T14:19:56;2.80;99.90
15178;DHT22;7689;53.612;-2.416;2022-12-11T14:22:25;2.80;99.90
15178;DHT22;7689;53.612;-2.416;2022-12-11T14:24:59;2.60;99.90
15178;DHT22;7689;53.612;-2.416;2022-12-11T14:27:28;2.50;99.90
15178;DHT22;7689;53.612;-2.416;2022-12-11T14:29:54;2.30;99.90
15178;DHT22;7689;53.612;-2.416;2022-12-11T14:32:37;2.30;99.90
15178;DHT22;7689;53.612;-2.416;2022-12-11T14:35:17;2.20;99.90
15178;DHT22;7689;53.612;-2.416;2022-12-11T14:37:43;2.30;99.90
15178;DHT22;7689;53.612;-2.416;2022-12-11T14:40:17;2.10;99.90
15178;DHT22;7689;53.612;-2.416;2022-12-11T14:42:47;2.00;99.90
15178;DHT22;7689;53.612;-2.416;2022-12-11T14:47:45;1.90;99.90
15178;DHT22;7689;53.612;-2.416;2022-12-11T14:50:22;2.10;99.90
15178;DHT22;7689;53.612;-2.416;2022-12-11T14:52:54;2.00;99.90
15178;DHT22;7689;53.612;-2.416;2022-12-11T14:55:32;2.00;99.90
15178;DHT22;7689;53.612;-2.416;2022-12-11T14:58:14;2.00;99.90
15178;DHT22;7689;53.612;-2.416;2022-12-11T15:00:40;2.00;99.90
15178;DHT22;7689;53.612;-2.416;2022-12-11T15:03:18;2.00;99.90
15178;DHT22;7689;53.612;-2.416;2022-12-11T15:05:51;1.90;99.90
15178;DHT22;7689;53.612;-2.416;2022-12-11T15:08:20;2.10;99.90
15178;DHT22;7689;53.612;-2.416;2022-12-11T15:13:30;2.00;99.90
15178;DHT22;7689;53.612;-2.416;2022-12-11T15:15:57;2.10;99.90
15178;DHT22;7689;53.612;-2.416;2022-12-11T15:18:29;2.10;99.90
15178;DHT22;7689;53.612;-2.416;2022-12-11T15:20:59;2.10;99.90
15178;DHT22;7689;53.612;-2.416;2022-12-11T15:23:27;2.20;99.90
15178;DHT22;7689;53.612;-2.416;2022-12-11T15:25:55;2.20;99.90
15178;DHT22;7689;53.612;-2.416;2022-12-11T15:28:26;2.20;99.90
15178;DHT22;7689;53.612;-2.416;2022-12-11T15:31:05;2.20;99.90
15178;DHT22;7689;53.612;-2.416;2022-12-11T15:33:31;2.20;99.90
15178;DHT22;7689;53.612;-2.416;2022-12-11T15:36:05;2.20;99.90
15178;DHT22;7689;53.612;-2.416;2022-12-11T15:38:37;2.00;99.90
15178;DHT22;7689;53.612;-2.416;2022-12-11T15:41:13;2.00;99.90
15178;DHT22;7689;53.612;-2.416;2022-12-11T15:43:40;1.90;99.90
15178;DHT22;7689;53.612;-2.416;2022-12-11T15:46:06;2.00;99.90
15178;DHT22;7689;53.612;-2.416;2022-12-11T15:48:32;2.00;99.90
15178;DHT22;7689;53.612;-2.416;2022-12-11T15:50:59;1.90;99.90
15178;DHT22;7689;53.612;-2.416;2022-12-11T15:53:25;1.90;99.90
15178;DHT22;7689;53.612;-2.416;2022-12-11T15:55:50;2.00;99.90
15178;DHT22;7689;53.612;-2.416;2022-12-11T15:58:19;2.00;99.90
15178;DHT22;7689;53.612;-2.416;2022-12-11T16:00:46;1.90;99.90
15178;DHT22;7689;53.612;-2.416;2022-12-11T16:03:13;1.80;99.90
15178;DHT22;7689;53.612;-2.416;2022-12-11T16:05:40;1.90;99.90
15178;DHT22;7689;53.612;-2.416;2022-12-11T16:08:06;1.80;99.90
15178;DHT22;7689;53.612;-2.416;2022-12-11T16:10:32;1.80;99.90
15178;DHT22;7689;53.612;-2.416;2022-12-11T16:12:58;1.60;99.90
15178;DHT22;7689;53.612;-2.416;2022-12-11T16:15:25;1.60;99.90
15178;DHT22;7689;53.612;-2.416;2022-12-11T16:18:05;1.50;99.90
15178;DHT22;7689;53.612;-2.416;2022-12-11T16:20:31;1.60;99.90
15178;DHT22;7689;53.612;-2.416;2022-12-11T16:22:57;1.60;99.90
15178;DHT22;7689;53.612;-2.416;2022-12-11T16:25:24;1.50;99.90
15178;DHT22;7689;53.612;-2.416;2022-12-11T16:27:50;1.50;99.90
15178;DHT22;7689;53.612;-2.416;2022-12-11T16:30:18;1.60;99.90
15178;DHT22;7689;53.612;-2.416;2022-12-11T16:32:44;1.30;99.90
15178;DHT22;7689;53.612;-2.416;2022-12-11T16:35:10;1.00;99.90
15178;DHT22;7689;53.612;-2.416;2022-12-11T16:37:35;0.90;99.90
15178;DHT22;7689;53.612;-2.416;2022-12-11T16:40:03;1.00;99.90
15178;DHT22;7689;53.612;-2.416;2022-12-11T16:42:31;1.20;99.90
15178;DHT22;7689;53.612;-2.416;2022-12-11T16:45:07;2.50;99.90
15178;DHT22;7689;53.612;-2.416;2022-12-11T16:47:34;1.40;99.90
15178;DHT22;7689;53.612;-2.416;2022-12-11T16:50:00;1.40;99.90
15178;DHT22;7689;53.612;-2.416;2022-12-11T16:52:26;1.20;99.90
15178;DHT22;7689;53.612;-2.416;2022-12-11T16:54:51;1.00;99.90
15178;DHT22;7689;53.612;-2.416;2022-12-11T16:57:17;1.00;99.90
15178;DHT22;7689;53.612;-2.416;2022-12-11T16:59:43;0.90;99.90
15178;DHT22;7689;53.612;-2.416;2022-12-11T17:02:11;0.80;99.90
15178;DHT22;7689;53.612;-2.416;2022-12-11T17:04:37;0.60;99.90
15178;DHT22;7689;53.612;-2.416;2022-12-11T17:07:03;0.80;99.90
15178;DHT22;7689;53.612;-2.416;2022-12-11T17:09:29;0.80;99.90
15178;DHT22;7689;53.612;-2.416;2022-12-11T17:11:55;0.70;99.90
15178;DHT22;7689;53.612;-2.416;2022-12-11T17:16:47;0.60;99.90
15178;DHT22;7689;53.612;-2.416;2022-12-11T17:19:13;0.50;99.90
15178;DHT22;7689;53.612;-2.416;2022-12-11T17:21:39;0.50;99.90
15178;DHT22;7689;53.612;-2.416;2022-12-11T17:24:05;0.70;99.90
15178;DHT22;7689;53.612;-2.416;2022-12-11T17:26:31;0.80;99.90
15178;DHT22;7689;53.612;-2.416;2022-12-11T17:28:57;0.70;99.90
15178;DHT22;7689;53.612;-2.416;2022-12-11T17:31:24;0.60;99.90
15178;DHT22;7689;53.612;-2.416;2022-12-11T17:33:49;0.40;99.90
15178;DHT22;7689;53.612;-2.416;2022-12-11T17:36:17;0.40;99.90
15178;DHT22;7689;53.612;-2.416;2022-12-11T17:38:44;0.40;99.90
15178;DHT22;7689;53.612;-2.416;2022-12-11T17:41:11;0.30;99.90